METAR EFET 040550Z AUTO 15003KT 110V210 9999 -SHRA FEW016 OVC019 08/07 Q0997=
METAR EFHA 040550Z AUTO 19008KT 9999 OVC010 14/11 Q1005=
METAR EFHK 040550Z 18009KT 9999 SCT014TCU BKN027 16/13 Q1007 BECMG BKN015TCU=
METAR EFIV 040550Z AUTO 20005KT 160V220 9999 SHRA OVC014 09/08 Q0999=
METAR EFJO 040550Z AUTO 19007KT 130V250 CAVOK 18/09 Q1007=
METAR EFJY 040550Z AUTO 16008KT 9999 FEW016 14/11 Q1005=
METAR EFKE 040550Z AUTO 21012KT 180V240 9999 BKN016 12/09 Q1002=
METAR EFKI 040550Z AUTO 19008KT 140V220 CAVOK 15/06 Q1005=
METAR EFKK 040550Z AUTO 16013KT CAVOK 15/10 Q1002=
METAR EFKS 040550Z AUTO 20013KT 9999 FEW026 12/06 Q1004=
METAR EFKT 040550Z AUTO 19005KT 160V220 9999 FEW006 BKN037 09/08 Q0998=
METAR EFKU 040550Z AUTO 17007KT 140V240 CAVOK 16/09 Q1006=
METAR EFLA 040550Z AUTO 20010KT 160V230 9999 BKN087/// 15/11 Q1007=
METAR EFLP 040550Z AUTO 20007KT 150V240 9999 FEW021 16/10 Q1008=
METAR EFMA 040550Z AUTO 18013KT 9999 -RA FEW027 13/10 Q1004=
METAR EFMI 040550Z AUTO 18005KT 130V250 9999 FEW017 BKN104 ///// Q////=
METAR EFOU 040550Z AUTO 18007KT 140V220 CAVOK 14/08 Q1003=
METAR EFPO 040550Z AUTO 20008KT 160V240 CAVOK 16/10 Q1004=
METAR EFRO 040550Z AUTO 21015KT 180V240 9999 OVC010 10/07 Q1000=
METAR EFSA 040550Z AUTO 21010KT 180V240 9999 FEW023 16/10 Q1008=
METAR EFSI 040550Z AUTO 19007KT 140V260 9999 FEW023 SCT190 16/10 Q1003=
METAR EFTP 040550Z AUTO 19008KT 160V220 9999 VCSH FEW045 //////CB 15/11 Q1005=
METAR EFTU 040550Z AUTO 19008KT 160V240 9999 FEW030 17/10 Q1005=
METAR EFUT 040550Z AUTO 20008KT 160V230 9999 FEW018 16/09 Q1008=
METAR EFVA 040550Z AUTO 19009KT CAVOK 14/11 Q1002=
ILHF 040600Z AUTO 19011KT 9999 BKN011 16/14 Q1008=
ILHK 040600Z AUTO 20012KT 9999 -RA BKN014 16/13 Q1007=
ILIK 040610Z AUTO 19010KT 9999 FEW018 BKN043 16/10 Q1006=
ILJY 040600Z AUTO 16005KT 9999 FEW016 15/10 Q1005=
ILKA 040600Z AUTO 19012KT CAVOK 16/11 Q1003=
ILKM 040600Z AUTO 21016KT 9999 BKN022 BKN026 11/05 Q1001=
ILMI 040600Z AUTO 19006KT 9999 FEW017 BKN096 14/11 Q1007=
ILPR 040600Z AUTO 18010KT 9999 BKN014 16/12 Q1008=
ILPU 040600Z AUTO 19009KT 9999 FEW046 SCT063 14/06 Q1003=
ILQA 040610Z AUTO 17011KT 9999 BKN026 12/08 Q1002=
ILQB 040610Z AUTO 15005KT 9999 FEW024 BKN042 11/07 Q0999=
ILQC 040600Z AUTO 18004KT 9999 BKN009 BKN050 10/08 Q0998=
ILQD 040610Z AUTO /////KT 9999 -SHRA FEW015 OVC039 11/08 Q////=
ILQE 040600Z AUTO 21006KT 9999 FEW007 SCT012 BKN015 10/09 Q0999=
ILQH 040600Z AUTO 20011KT CAVOK 13/10 Q1003=
ILQI 040600Z AUTO 18003KT //// // FEW005 OVC025 08/08 Q0998=
ILQJ 040600Z AUTO 21013KT 9999 SCT011 BKN016 12/09 Q1002=
ILQK 040600Z AUTO 18006KT 9999 ////// 06/06 Q0996=
ILQL 040600Z AUTO 18010KT 9999 ////// 14/09 Q1003=
ILQM 040600Z AUTO 16005KT 2000 -RA OVC003 08/08 Q////=
ILQN 040610Z AUTO 35011G22KT 9999 -RA OVC016 05/04 Q0999=
ILQO 040600Z AUTO 19008KT 9999 -RA FEW006 BKN009 BKN012 09/09 Q0999=
ILQP 040600Z AUTO 20007KT 9999 ////// 15/09 Q1003=
ILQQ 040610Z AUTO 22005KT 9999 BKN016 13/08 Q1001=
ILQR 040600Z AUTO 22009KT 9999 SCT014 OVC019 11/08 Q1001=
ILQS 040600Z AUTO 18004KT CAVOK 13/08 Q1005=
ILQT 040600Z AUTO 14006KT 9999 FEW011 BKN030 08/06 Q0997=
ILQU 040600Z AUTO 04002KT 9999 FEW014 BKN054 10/10 Q0999=
ILQV 040600Z AUTO 17006KT 9999 FEW011 SCT021 BKN030 09/08 Q0999=
ILQX 040600Z AUTO 19005KT CAVOK 15/09 Q1003=
ILQY 040600Z AUTO 18009KT CAVOK 15/08 Q1004=
ILRO 040600Z AUTO /////KT 9999 ////// 10/07 Q////=
ILRU 040600Z AUTO 19014KT 9999 BKN025 13/08 Q1002=
ILWA 040600Z AUTO 19012KT CAVOK 16/13 Q1009=
ILWD 040600Z AUTO /////KT //// // SCT011 14/13 Q////=
ILWE 040600Z AUTO 18007KT 9999 -SHRA OVC013 08/06 Q0999=
ILWF 040600Z AUTO 21012KT CAVOK 13/06 Q////=
ILWG 040600Z AUTO /////KT 9999 BKN010 14/11 Q1005=
ILXA 040600Z AUTO /////KT CAVOK 15/10 Q1004=
ILXB 040600Z AUTO 19007KT 9999 FEW030 16/10 Q1003=
ILXC 040600Z AUTO 19006KT 9999 FEW021 15/10 Q1007=
ILXD 040610Z AUTO /////KT CAVOK 17/10 Q1007=
ILXE 040610Z AUTO 16007KT CAVOK 15/07 Q1005=
ILXF 040610Z AUTO 20020KT 9999 FEW030 BKN051 BKN064 16/// Q1004=
ILXG 040600Z AUTO 18021KT 9999 BKN021 16/11 Q1002=
ILXI 040600Z AUTO 21004KT CAVOK 16/12 Q1007=
ILXJ 040600Z AUTO 19006KT CAVOK 15/05 Q1005=
ILXK 040600Z AUTO 21005KT CAVOK 15/07 Q1006=
ILXL 040600Z AUTO /////KT 9999 FEW019 17/11 Q1003=
ILXM 040600Z AUTO /////KT CAVOK 17/07 Q////=
ILXN 040600Z AUTO 16010KT 9999 FEW025 //////CB 16/09 Q1004=
ILXO 040600Z AUTO 19010KT 9999 FEW024 SCT031 16/10 Q1003=
ILXP 040600Z AUTO 21013KT CAVOK 16/10 Q1003=
ILXQ 040600Z AUTO /////KT 9999 FEW021 16/10 Q////=
ILXR 040600Z AUTO 18005KT 9999 FEW049 17/08 Q1006=
ILXS 040610Z AUTO 15008KT CAVOK 15/07 Q1005=
ILXT 040600Z AUTO 14005KT CAVOK 13/10 Q1001=
ILXU 040600Z AUTO /////KT CAVOK 16/09 Q1008=
ILXV 040600Z AUTO 17007KT CAVOK 17/09 Q1005=
ILXW 040600Z AUTO 18006KT CAVOK 16/08 Q1004=
ILXX 040600Z AUTO 18008KT CAVOK 14/11 Q1001=
ILXY 040600Z AUTO 17007KT CAVOK 17/09 Q1005=
ILXZ 040600Z AUTO 21008KT 9999 FEW021 BKN098 15/10 Q////=
ILYL 040600Z AUTO 15006KT CAVOK 15/11 Q1003=
ILZA 040600Z AUTO 21018KT 9999 SCT011 BKN067 16/14 Q1008=
ILZB 040600Z AUTO 18008KT 9999 -RA OVC031 13/10 Q1004=
ILZC 040610Z AUTO /////KT 9999 SCT024 16/10 Q1008=
ILZD 040600Z AUTO 19015G27KT 9999 FEW007 BKN011 BKN017 16/13 Q1008=
ILZE 040600Z AUTO 22010G20KT 9999 SCT007 BKN012 BKN019 17/13 Q1008=
ILZF 040610Z AUTO 18008G22KT 9999 SCT015 16/12 Q1007=
ILZG 040600Z AUTO /////KT 9999 BKN028 16/12 Q1007=
ILZH 040610Z AUTO /////KT 9999 SCT015 BKN045 16/11 Q1005=
ILZI 040600Z AUTO 19016KT 9999 //////CB 16/10 Q1004=
ILZJ 040600Z AUTO 19008KT 9999 FEW016 SCT024 BKN064 16/11 Q1005=
ILZK 040600Z AUTO 20010KT 9999 -RA BKN048 BKN073 15/09 Q1004=
ILZL 040600Z AUTO 19012KT 9999 FEW021 SCT027 BKN073 16/11 Q1005=
ILZM 040600Z AUTO /////KT 9999 SCT021 BKN064 BKN095 16/12 Q1007=
ILZO 040600Z AUTO 21012KT CAVOK 15/12 Q1009=
ILZP 040600Z AUTO 19007KT CAVOK 17/09 Q1004=
ILZQ 040600Z AUTO 20007KT 9999 FEW019 SCT038 BKN059 16/12 Q1007=
ILZR 040600Z AUTO 20008KT 9999 SCT029 BKN064 17/10 Q1005=
ILZS 040600Z AUTO 23016KT 9999 SCT009 16/13 Q1007=
ILZT 040600Z AUTO 22022KT CAVOK 16/13 Q1007=
ILZU 040600Z AUTO 20017KT 9999 -RA NSC 15/12 Q1006=
ILZV 040600Z AUTO 21008KT 9999 FEW015 16/12 Q1008=
ILZW 040600Z AUTO 21014KT 9999 BKN010 16/13 Q1008=
ILZX 040600Z AUTO 19013G24KT 9999 SCT010 16/13 Q1007=
ILZY 040600Z AUTO 19020KT 9999 -RA NSC 14/11 Q1004=
ILZZ 040600Z AUTO /////KT 9999 FEW021 16/10 Q1007=